Time;durP1;ratioP1;P1;durP2;ratioP2;P2;SDS_P1;SDS_P2;PMS_P1;PMS_P2;Temp;Humidity;BMP_temperature;BMP_pressure;BME280_temperature;BME280_humidity;BME280_pressure;Samples;Min_cycle;Max_cycle;Signal;HPM_P1;HPM_P2
2021/09/11 00:01:45;;;;;;;3.27;2.93;;;;;;;21.42;67.67;98902.78;5111573;28;40703;-78
2021/09/11 00:04:13;;;;;;;4.03;3.40;;;;;;;21.41;67.96;98908.34;5112581;28;43863;-79
2021/09/11 00:06:40;;;;;;;3.53;3.00;;;;;;;21.42;67.50;98912.72;5111650;28;42362;-79
2021/09/11 00:09:08;;;;;;;3.60;2.90;;;;;;;21.35;67.23;98903.63;5111413;28;40320;-79
2021/09/11 00:11:35;;;;;;;3.63;3.00;;;;;;;21.44;67.26;98916.13;5111245;28;41038;-79
2021/09/11 00:14:03;;;;;;;3.33;3.03;;;;;;;21.45;67.75;98917.81;5094724;28;42152;-79
2021/09/11 00:16:32;;;;;;;2.70;2.50;;;;;;;21.45;67.39;98912.41;5112194;28;43042;-78
2021/09/11 00:18:59;;;;;;;3.93;3.30;;;;;;;21.44;67.46;98908.88;5112441;28;41288;-79
2021/09/11 00:21:27;;;;;;;3.33;2.93;;;;;;;21.44;67.83;98911.56;5110989;28;42491;-79
2021/09/11 00:23:54;;;;;;;3.17;2.77;;;;;;;21.41;67.88;98911.03;5111066;28;43226;-78
2021/09/11 00:26:22;;;;;;;3.83;3.47;;;;;;;21.38;67.27;98906.84;5093511;28;41324;-79
2021/09/11 00:28:51;;;;;;;4.97;2.83;;;;;;;21.44;67.26;98916.13;5111057;28;38915;-78
2021/09/11 00:31:18;;;;;;;4.10;3.30;;;;;;;21.34;67.00;98899.25;5110629;28;41776;-79
2021/09/11 00:33:47;;;;;;;4.13;3.13;;;;;;;21.43;67.32;98914.41;5110602;28;42121;-78
2021/09/11 00:36:14;;;;;;;3.33;3.03;;;;;;;21.40;67.56;98904.81;5109858;28;42945;-78
2021/09/11 00:38:42;;;;;;;4.60;2.90;;;;;;;21.41;67.73;98905.66;5093856;28;39009;-78
2021/09/11 00:41:10;;;;;;;3.13;2.83;;;;;;;21.41;67.31;98911.03;5110483;28;41734;-79
2021/09/11 00:43:44;;;;;;;2.50;2.30;;;;;;;21.41;67.48;98905.66;5111427;28;42929;-80
2021/09/11 00:46:12;;;;;;;3.60;2.87;;;;;;;21.40;67.59;98904.81;5093449;28;41695;-78
2021/09/11 00:48:39;;;;;;;2.77;2.50;;;;;;;21.41;67.25;98911.03;5093365;28;40263;-79
2021/09/11 00:51:09;;;;;;;2.73;2.53;;;;;;;21.42;67.01;98902.78;5093302;28;40987;-79
2021/09/11 00:53:37;;;;;;;3.30;2.67;;;;;;;21.45;67.25;98907.03;5112833;28;42720;-79
2021/09/11 00:56:05;;;;;;;2.87;2.57;;;;;;;21.45;67.14;98912.41;5130563;28;42824;-79
2021/09/11 00:58:32;;;;;;;2.90;2.53;;;;;;;21.45;67.40;98907.88;5130786;28;39951;-79
2021/09/11 01:01:00;;;;;;;3.60;3.10;;;;;;;21.46;67.05;98908.72;5130062;28;42616;-79
2021/09/11 01:03:27;;;;;;;3.30;3.00;;;;;;;21.47;66.83;98913.94;5131542;28;44472;-78
2021/09/11 01:06:08;;;;;;;2.87;2.40;;;;;;;21.49;67.08;98920.03;5113560;28;41309;-80
2021/09/11 01:08:37;;;;;;;3.50;2.93;;;;;;;21.49;67.53;98924.56;5130423;28;39894;-79
2021/09/11 01:11:05;;;;;;;3.23;2.93;;;;;;;21.47;67.48;98922.03;5129185;27;42467;-79
2021/09/11 01:13:33;;;;;;;3.80;2.83;;;;;;;21.46;67.57;98922.19;5111175;28;41780;-79
2021/09/11 01:16:01;;;;;;;2.70;2.50;;;;;;;21.45;67.42;98917.81;5110418;28;41545;-78
2021/09/11 01:18:29;;;;;;;3.43;3.10;;;;;;;21.42;67.79;98913.56;5111833;28;40788;-79
2021/09/11 01:20:56;;;;;;;4.30;3.57;;;;;;;21.43;67.95;98919.81;5109808;28;40741;-78
2021/09/11 01:23:26;;;;;;;3.30;3.00;;;;;;;21.43;67.70;98919.81;5111556;28;42875;-79
2021/09/11 01:25:56;;;;;;;2.80;2.60;;;;;;;21.31;67.50;98895.00;5111547;28;43140;-79
2021/09/11 01:28:27;;;;;;;3.67;2.87;;;;;;;21.42;67.60;98918.13;5110343;28;40190;-79
2021/09/11 01:30:54;;;;;;;3.23;2.47;;;;;;;21.41;67.24;98917.28;5109280;28;40927;-78
2021/09/11 01:33:23;;;;;;;3.30;2.87;;;;;;;21.40;67.72;98915.59;5110232;28;43298;-79
2021/09/11 01:35:50;;;;;;;3.37;3.00;;;;;;;21.39;67.74;98918.44;5109824;28;42417;-79
2021/09/11 01:38:18;;;;;;;3.10;2.80;;;;;;;21.33;67.45;98905.63;5110146;28;40962;-78
2021/09/11 01:40:45;;;;;;;3.23;2.67;;;;;;;21.40;67.49;98928.22;5109052;28;42682;-79
2021/09/11 01:43:14;;;;;;;2.50;2.30;;;;;;;21.37;67.61;98926.72;5109456;28;42937;-79
2021/09/11 01:45:41;;;;;;;3.40;2.63;;;;;;;21.31;68.12;98924.66;5110076;28;42648;-78
2021/09/11 01:48:09;;;;;;;3.90;2.77;;;;;;;21.15;68.49;98929.94;5109311;28;40566;-78
2021/09/11 01:50:36;;;;;;;3.03;2.67;;;;;;;21.02;68.74;98922.28;5092119;28;40732;-77
2021/09/11 01:53:04;;;;;;;2.60;2.40;;;;;;;20.89;69.74;98932.66;5110799;28;43676;-77
2021/09/11 01:55:31;;;;;;;2.70;2.50;;;;;;;20.82;69.63;98934.28;5108658;28;42486;-77
2021/09/11 01:57:59;;;;;;;2.53;2.17;;;;;;;20.69;69.81;98920.41;5108764;28;41857;-77
2021/09/11 02:00:28;;;;;;;2.70;2.50;;;;;;;20.67;70.51;98934.03;5091665;28;41922;-76
2021/09/11 02:02:55;;;;;;;4.83;2.73;;;;;;;20.61;71.07;98944.59;5109609;28;41898;-77
2021/09/11 02:05:23;;;;;;;3.07;2.83;;;;;;;20.52;71.56;98937.47;5092657;28;41180;-77
2021/09/11 02:07:50;;;;;;;3.63;3.33;;;;;;;20.46;71.59;98935.38;5110970;28;40159;-77
2021/09/11 02:10:19;;;;;;;3.13;2.70;;;;;;;20.40;71.64;98940.38;5109001;28;41661;-77
2021/09/11 02:12:46;;;;;;;3.10;2.70;;;;;;;20.47;71.49;98942.47;5108524;28;43184;-77
2021/09/11 02:15:14;;;;;;;2.67;2.30;;;;;;;20.49;71.01;98945.84;5109060;28;42533;-77
2021/09/11 02:17:43;;;;;;;2.87;2.53;;;;;;;20.50;71.07;98948.38;5093041;28;39212;-77
2021/09/11 02:20:12;;;;;;;2.87;2.23;;;;;;;20.50;71.44;98939.47;5108716;28;40585;-77
2021/09/11 02:22:40;;;;;;;2.30;2.10;;;;;;;20.50;71.39;98942.16;5091148;28;43345;-77
2021/09/11 02:25:09;;;;;;;2.83;2.47;;;;;;;20.53;70.99;98941.81;5108980;28;42462;-77
2021/09/11 02:27:38;;;;;;;2.30;2.10;;;;;;;20.42;71.62;98919.56;5091074;28;38842;-77
2021/09/11 02:30:06;;;;;;;3.70;2.53;;;;;;;20.54;71.39;98938.13;5092266;28;40810;-77
2021/09/11 02:32:34;;;;;;;3.83;2.73;;;;;;;20.58;70.86;98945.75;5116622;27;41747;-78
2021/09/11 02:35:03;;;;;;;2.57;2.00;;;;;;;20.61;71.04;98947.28;5129761;27;42326;-77
2021/09/11 02:37:31;;;;;;;2.80;2.40;;;;;;;20.64;70.75;98944.28;5129185;27;40196;-78
2021/09/11 02:39:58;;;;;;;3.00;2.60;;;;;;;20.36;70.65;98889.75;5112374;27;40945;-77
2021/09/11 02:42:26;;;;;;;1.90;1.80;;;;;;;20.65;71.13;98956.72;5128570;27;43324;-77
2021/09/11 02:44:53;;;;;;;2.87;2.67;;;;;;;20.53;71.25;98942.66;5129161;27;42396;-77
2021/09/11 02:47:21;;;;;;;2.87;2.37;;;;;;;20.49;71.71;98948.53;5110175;27;41113;-78
2021/09/11 02:49:48;;;;;;;3.50;3.17;;;;;;;20.35;72.73;98944.53;5128621;27;41923;-77
2021/09/11 02:52:17;;;;;;;3.83;2.83;;;;;;;20.31;72.80;98952.03;5110355;27;41828;-77
2021/09/11 02:54:45;;;;;;;2.57;2.03;;;;;;;20.29;73.07;98945.97;5112109;27;42271;-77
2021/09/11 02:57:12;;;;;;;2.27;2.07;;;;;;;20.28;72.46;98946.97;5128837;27;40210;-76
2021/09/11 02:59:39;;;;;;;4.03;2.13;;;;;;;20.28;72.30;98949.66;5129536;27;42131;-77
2021/09/11 03:02:07;;;;;;;3.23;2.30;;;;;;;20.24;72.60;98940.22;5111117;27;41689;-78
2021/09/11 03:04:35;;;;;;;2.57;2.17;;;;;;;20.27;72.44;98948.00;5128864;27;42495;-77
2021/09/11 03:07:02;;;;;;;2.37;2.07;;;;;;;20.27;72.26;98948.00;5128388;27;38728;-77
2021/09/11 03:09:31;;;;;;;1.93;1.83;;;;;;;20.27;72.37;98948.00;5129380;27;41636;-77
2021/09/11 03:11:59;;;;;;;2.67;2.47;;;;;;;20.27;72.26;98942.63;5112231;27;41728;-77
2021/09/11 03:14:27;;;;;;;2.20;2.00;;;;;;;20.24;72.40;98942.91;5128776;27;41826;-78
2021/09/11 03:16:54;;;;;;;2.90;2.43;;;;;;;20.23;72.10;98935.84;5127896;27;40059;-77
2021/09/11 03:19:22;;;;;;;3.53;2.60;;;;;;;20.19;71.97;98934.47;5111703;27;40674;-77
2021/09/11 03:21:50;;;;;;;2.07;1.83;;;;;;;20.18;72.22;98943.53;5111314;27;43265;-77
2021/09/11 03:24:18;;;;;;;2.10;1.90;;;;;;;20.13;72.16;98934.25;5128432;27;41762;-77
2021/09/11 03:26:47;;;;;;;2.17;1.97;;;;;;;20.12;72.22;98935.25;5111284;27;39345;-77
2021/09/11 03:29:15;;;;;;;2.20;1.87;;;;;;;20.11;71.72;98936.25;5128254;27;40925;-77
2021/09/11 03:31:43;;;;;;;2.17;1.97;;;;;;;20.14;71.72;98946.69;5129300;27;42980;-77
2021/09/11 03:34:10;;;;;;;1.80;1.70;;;;;;;20.15;71.35;98938.47;5110820;27;41251;-77
2021/09/11 03:36:38;;;;;;;2.30;1.87;;;;;;;20.15;71.52;98940.31;5111072;27;40045;-77
2021/09/11 03:39:06;;;;;;;2.67;2.43;;;;;;;20.08;71.59;98932.84;5128672;27;41572;-77
2021/09/11 03:41:34;;;;;;;2.30;2.10;;;;;;;20.05;71.18;98921.56;5127884;27;42920;-77
2021/09/11 03:44:03;;;;;;;2.63;2.27;;;;;;;20.16;71.67;98950.06;5112093;27;41432;-78
2021/09/11 03:46:31;;;;;;;3.63;2.50;;;;;;;20.15;71.43;98949.22;5128389;27;43267;-77
2021/09/11 03:48:59;;;;;;;5.10;2.90;;;;;;;20.15;71.53;98948.38;5111677;27;40935;-77
2021/09/11 03:51:29;;;;;;;2.53;2.27;;;;;;;20.15;71.58;98951.94;5111523;27;41751;-77
2021/09/11 03:53:57;;;;;;;3.87;2.47;;;;;;;20.15;71.70;98953.75;5110981;27;41458;-77
2021/09/11 03:56:25;;;;;;;2.70;2.50;;;;;;;20.02;72.15;98930.81;5129538;27;40158;-77
2021/09/11 03:58:52;;;;;;;3.20;2.70;;;;;;;20.13;71.86;98945.84;5128478;27;41997;-77
2021/09/11 04:01:22;;;;;;;3.00;2.20;;;;;;;20.12;72.55;98948.69;5127426;27;43641;-77
2021/09/11 04:03:50;;;;;;;3.37;2.67;;;;;;;20.12;72.58;98946.84;5111628;27;42623;-77
2021/09/11 04:06:17;;;;;;;2.70;2.40;;;;;;;20.11;72.71;98947.84;5110501;27;40169;-77
2021/09/11 04:08:45;;;;;;;4.20;3.07;;;;;;;20.11;72.42;98947.00;5128842;27;42661;-77
2021/09/11 04:11:13;;;;;;;3.77;2.63;;;;;;;20.11;72.26;98941.63;5129462;27;43027;-78
2021/09/11 04:13:40;;;;;;;3.80;3.40;;;;;;;19.99;72.71;98922.19;5128302;27;42705;-78
2021/09/11 04:16:08;;;;;;;3.77;2.93;;;;;;;20.10;73.04;98940.78;5128684;27;40290;-77
2021/09/11 04:18:38;;;;;;;3.40;2.93;;;;;;;20.11;73.79;98947.00;5127329;27;42288;-77
2021/09/11 04:21:05;;;;;;;3.20;2.90;;;;;;;20.08;72.85;98942.75;5110693;27;42851;-77
2021/09/11 04:23:33;;;;;;;4.53;4.13;;;;;;;20.02;73.33;98932.63;5127998;27;42568;-77
2021/09/11 04:26:01;;;;;;;3.67;3.10;;;;;;;20.12;73.26;98944.16;5127788;27;39722;-77
2021/09/11 04:28:29;;;;;;;3.17;2.83;;;;;;;20.11;73.04;98953.22;5111056;27;40837;-77
2021/09/11 04:30:56;;;;;;;4.07;3.10;;;;;;;20.10;72.75;98951.53;5111787;27;42125;-77
2021/09/11 04:33:24;;;;;;;4.30;3.60;;;;;;;20.09;73.06;98956.06;5110371;27;42545;-78
2021/09/11 04:35:54;;;;;;;4.27;3.03;;;;;;;20.07;73.41;98954.50;5111435;27;39206;-78
2021/09/11 04:38:22;;;;;;;5.17;3.77;;;;;;;20.07;73.87;98957.19;5128477;27;43497;-77
2021/09/11 04:40:50;;;;;;;4.10;3.67;;;;;;;19.97;73.47;98940.31;5110747;27;41566;-77
2021/09/11 04:43:18;;;;;;;5.07;3.90;;;;;;;20.01;73.71;98952.47;5111095;27;41301;-76
2021/09/11 04:45:45;;;;;;;3.60;3.20;;;;;;;20.02;73.77;98957.69;5127823;27;39850;-77
2021/09/11 04:48:13;;;;;;;3.30;3.00;;;;;;;20.04;73.54;98952.13;5113149;27;40647;-78
2021/09/11 04:50:41;;;;;;;4.37;3.40;;;;;;;20.05;73.21;98951.13;5132936;27;43248;-77
2021/09/11 04:53:10;;;;;;;3.03;2.67;;;;;;;20.05;73.26;98953.81;5130953;27;43188;-78
2021/09/11 04:55:38;;;;;;;3.17;2.87;;;;;;;20.05;73.52;98961.88;5135161;27;38740;-77
2021/09/11 04:58:05;;;;;;;4.07;3.17;;;;;;;20.05;73.91;98965.41;5150384;27;41687;-78
2021/09/11 05:00:33;;;;;;;4.10;3.17;;;;;;;20.03;73.75;98966.56;5151191;27;42983;-77
2021/09/11 05:03:01;;;;;;;5.30;4.00;;;;;;;20.06;74.01;98968.94;5131899;27;41580;-77
2021/09/11 05:05:29;;;;;;;4.40;3.33;;;;;;;20.05;73.71;98965.41;5152148;27;40685;-78
2021/09/11 05:07:57;;;;;;;3.07;2.77;;;;;;;20.06;73.65;98966.25;5134219;27;40172;-77
2021/09/11 05:10:27;;;;;;;3.93;3.00;;;;;;;20.08;73.70;98969.66;5151802;27;42685;-77
2021/09/11 05:12:55;;;;;;;3.67;3.10;;;;;;;20.01;73.11;98961.38;5152739;27;42402;-77
2021/09/11 05:15:25;;;;;;;3.13;2.87;;;;;;;20.10;73.50;98978.41;5134363;27;39652;-77
2021/09/11 05:17:55;;;;;;;3.00;2.60;;;;;;;20.12;73.10;98968.34;5151793;27;41591;-77
2021/09/11 05:20:23;;;;;;;3.83;3.43;;;;;;;20.15;73.45;98976.13;5153288;27;43104;-77
2021/09/11 05:22:51;;;;;;;4.70;3.63;;;;;;;20.15;73.41;98981.50;5151260;27;42152;-77
2021/09/11 05:25:19;;;;;;;3.50;3.03;;;;;;;20.18;73.44;98981.16;5151046;27;39641;-77
2021/09/11 05:27:48;;;;;;;3.17;2.87;;;;;;;20.21;73.29;98980.88;5134483;27;40885;-77
2021/09/11 05:30:18;;;;;;;3.43;3.13;;;;;;;20.26;72.89;98985.81;5150713;27;41713;-78
2021/09/11 05:32:46;;;;;;;4.33;3.13;;;;;;;20.32;72.90;98988.72;5114541;27;41096;-76
2021/09/11 05:35:14;;;;;;;5.43;3.97;;;;;;;20.36;72.85;98986.59;5130038;27;39078;-78
2021/09/11 05:37:41;;;;;;;4.67;3.50;;;;;;;20.41;72.75;98982.41;5129395;27;40705;-78
2021/09/11 05:40:10;;;;;;;3.50;3.17;;;;;;;20.47;72.84;98988.19;5112455;27;41693;-78
2021/09/11 05:42:37;;;;;;;3.53;3.23;;;;;;;20.51;72.67;98992.28;5112896;27;41418;-77
2021/09/11 05:45:08;;;;;;;4.07;3.60;;;;;;;20.44;72.62;98971.34;5130524;27;38977;-77
2021/09/11 05:47:36;;;;;;;5.57;3.30;;;;;;;20.59;72.66;98995.03;5130203;27;40678;-77
2021/09/11 05:50:05;;;;;;;4.40;3.97;;;;;;;20.65;72.38;99005.16;5130800;27;42004;-77
2021/09/11 05:52:32;;;;;;;4.83;3.70;;;;;;;20.70;72.29;98997.47;5129019;27;43288;-77
2021/09/11 05:55:00;;;;;;;4.30;3.50;;;;;;;20.73;72.30;98998.00;5131211;27;40990;-78
2021/09/11 05:57:27;;;;;;;3.93;3.53;;;;;;;20.76;72.05;98999.53;5130895;27;42830;-77
2021/09/11 05:59:56;;;;;;;4.33;3.93;;;;;;;20.72;71.91;98980.16;5109820;28;41639;-78
2021/09/11 06:02:25;;;;;;;3.47;3.03;;;;;;;20.90;71.63;98996.25;5109713;28;42436;-78
2021/09/11 06:04:53;;;;;;;3.80;3.03;;;;;;;20.93;71.71;98995.94;5111465;28;40957;-78
2021/09/11 06:07:21;;;;;;;3.63;3.33;;;;;;;20.99;71.36;99003.41;5108720;28;41886;-78
2021/09/11 06:09:49;;;;;;;3.53;3.20;;;;;;;21.01;71.23;99009.47;5109506;28;43177;-77
2021/09/11 06:12:16;;;;;;;3.80;3.30;;;;;;;21.06;71.31;99012.53;5108631;28;42556;-78
2021/09/11 06:14:44;;;;;;;3.33;2.80;;;;;;;21.05;71.05;99008.16;5111113;28;40260;-77
2021/09/11 06:17:12;;;;;;;4.57;3.87;;;;;;;21.00;71.30;99009.63;5109343;28;40731;-78
2021/09/11 06:19:42;;;;;;;5.20;3.30;;;;;;;20.91;71.71;99005.19;5110524;28;42994;-78
2021/09/11 06:22:11;;;;;;;4.80;3.57;;;;;;;20.95;71.54;99007.41;5091678;28;41190;-78
2021/09/11 06:24:39;;;;;;;3.40;3.10;;;;;;;21.01;71.76;99017.56;5110998;28;40285;-78
2021/09/11 06:27:08;;;;;;;5.27;4.33;;;;;;;21.07;71.41;99019.59;5108985;28;40727;-79
2021/09/11 06:29:35;;;;;;;4.90;3.63;;;;;;;21.10;71.22;99021.16;5092365;28;42729;-78
2021/09/11 06:32:03;;;;;;;5.23;3.57;;;;;;;21.16;71.14;99026.72;5109277;28;42492;-79
2021/09/11 06:34:31;;;;;;;4.73;3.93;;;;;;;21.16;70.82;99018.66;5090629;28;38980;-78
2021/09/11 06:37:00;;;;;;;3.67;3.30;;;;;;;21.10;70.63;99008.53;5109762;28;42805;-78
2021/09/11 06:39:28;;;;;;;3.63;3.00;;;;;;;21.26;70.83;99026.69;5092128;28;43289;-78
2021/09/11 06:41:56;;;;;;;4.70;3.57;;;;;;;21.25;70.49;99027.69;5108010;28;41582;-78
2021/09/11 06:44:23;;;;;;;3.67;3.37;;;;;;;21.22;70.30;99029.84;5108677;28;38762;-78
2021/09/11 06:46:51;;;;;;;4.37;3.83;;;;;;;21.10;70.83;99032.75;5109408;28;41659;-77
2021/09/11 06:49:20;;;;;;;3.83;3.53;;;;;;;21.09;71.21;99036.47;5106861;28;43122;-77
2021/09/11 06:51:47;;;;;;;3.93;3.40;;;;;;;21.03;71.10;99039.75;5091060;28;41560;-76
2021/09/11 06:54:16;;;;;;;3.00;2.53;;;;;;;21.01;71.90;99035.56;5108593;28;42174;-77
2021/09/11 06:56:44;;;;;;;3.70;3.20;;;;;;;20.88;71.71;99017.13;5094482;27;41009;-77
2021/09/11 06:59:12;;;;;;;3.13;2.87;;;;;;;21.00;71.93;99037.41;5108148;28;41988;-78
2021/09/11 07:01:40;;;;;;;3.93;2.90;;;;;;;21.04;71.78;99032.53;5107280;28;42519;-77
2021/09/11 07:04:08;;;;;;;4.50;3.53;;;;;;;21.06;71.87;99039.47;5109092;28;40303;-78
2021/09/11 07:06:36;;;;;;;3.50;2.97;;;;;;;21.16;71.71;99042.88;5121617;27;41954;-78
2021/09/11 07:09:03;;;;;;;3.40;3.10;;;;;;;21.01;71.46;98993.31;5128996;27;43027;-79
2021/09/11 07:11:33;;;;;;;4.47;3.37;;;;;;;21.47;71.78;99034.34;5128957;27;43247;-78
2021/09/11 07:14:01;;;;;;;4.17;3.37;;;;;;;21.53;71.09;99022.91;5111871;27;38904;-78
2021/09/11 07:16:29;;;;;;;3.57;2.80;;;;;;;21.77;70.40;99041.03;5134952;27;41846;-78
2021/09/11 07:18:56;;;;;;;3.83;3.30;;;;;;;21.95;70.45;99044.50;5137964;27;42893;-78
2021/09/11 07:21:24;;;;;;;3.40;2.57;;;;;;;22.10;69.48;99031.28;5122995;27;41611;-79
2021/09/11 07:23:51;;;;;;;3.43;2.93;;;;;;;22.18;69.63;99039.38;5126955;27;39378;-78
2021/09/11 07:26:19;;;;;;;3.30;3.00;;;;;;;22.25;69.23;99040.41;5116258;27;41171;-78
2021/09/11 07:28:49;;;;;;;3.43;2.83;;;;;;;22.30;69.25;99038.03;5139232;27;42917;-78
2021/09/11 07:31:17;;;;;;;3.53;2.97;;;;;;;22.37;68.81;99047.19;5143626;27;43227;-79
2021/09/11 07:33:45;;;;;;;4.03;3.43;;;;;;;22.39;68.50;99053.22;5114110;27;40061;-79
2021/09/11 07:36:13;;;;;;;3.70;3.33;;;;;;;22.39;68.47;99052.38;5141181;27;42049;-78
2021/09/11 07:38:41;;;;;;;3.70;3.33;;;;;;;22.25;69.05;99051.22;5139601;27;42879;-78
2021/09/11 07:41:09;;;;;;;3.20;2.70;;;;;;;22.04;69.46;99034.59;5140916;27;42245;-77
2021/09/11 07:43:36;;;;;;;3.23;2.73;;;;;;;22.03;70.45;99059.88;5133001;27;40868;-77
2021/09/11 07:46:05;;;;;;;3.40;3.10;;;;;;;21.94;70.66;99058.16;5115232;27;41854;-77
2021/09/11 07:48:33;;;;;;;3.33;2.90;;;;;;;21.82;70.86;99066.53;5123423;27;42914;-78
2021/09/11 07:51:00;;;;;;;3.90;3.10;;;;;;;21.75;71.26;99065.50;5138456;27;42255;-78
2021/09/11 07:53:28;;;;;;;3.20;2.77;;;;;;;21.69;71.54;99054.50;5133124;27;40300;-77
2021/09/11 07:55:55;;;;;;;3.20;2.70;;;;;;;21.76;71.78;99061.78;5146976;27;42015;-78
2021/09/11 07:58:23;;;;;;;3.10;2.80;;;;;;;21.59;71.96;99033.06;5124751;27;43306;-79
2021/09/11 08:00:52;;;;;;;3.33;2.67;;;;;;;21.85;71.99;99071.59;5119874;27;43045;-78
2021/09/11 08:03:22;;;;;;;3.80;2.70;;;;;;;21.91;71.78;99075.50;5134034;27;40179;-77
2021/09/11 08:05:49;;;;;;;3.80;3.40;;;;;;;21.89;71.14;99069.41;5143666;27;40965;-79
2021/09/11 08:08:17;;;;;;;3.80;3.23;;;;;;;21.91;71.34;99080.03;5124900;27;41579;-78
2021/09/11 08:10:45;;;;;;;4.13;3.17;;;;;;;22.03;71.18;99079.63;5119956;27;41862;-78
2021/09/11 08:13:15;;;;;;;3.93;3.13;;;;;;;22.18;71.41;99066.34;5117840;27;38841;-78
2021/09/11 08:15:43;;;;;;;3.90;3.13;;;;;;;22.47;70.32;99079.41;5133658;27;42717;-78
2021/09/11 08:18:10;;;;;;;4.17;3.30;;;;;;;22.68;69.47;99078.94;5126085;27;43182;-78
2021/09/11 08:20:40;;;;;;;3.73;2.93;;;;;;;22.92;69.50;99087.06;5136435;27;42164;-77
2021/09/11 08:23:07;;;;;;;4.80;3.83;;;;;;;23.17;68.19;99096.00;5121750;27;39932;-77
2021/09/11 08:25:35;;;;;;;3.53;3.17;;;;;;;23.37;67.29;99085.69;5130233;27;40661;-77
2021/09/11 08:28:03;;;;;;;3.90;3.33;;;;;;;23.74;66.59;99077.84;5136030;27;42853;-78
2021/09/11 08:30:30;;;;;;;5.57;3.27;;;;;;;24.69;64.69;99087.53;5144830;27;42463;-79
2021/09/11 08:33:02;;;;;;;4.77;3.17;;;;;;;25.73;62.90;99088.66;5144166;27;40475;-77
2021/09/11 08:35:30;;;;;;;2.60;2.40;;;;;;;26.93;59.69;99103.56;5136004;27;42000;-79
2021/09/11 08:38:00;;;;;;;2.77;2.37;;;;;;;27.88;56.54;99105.78;5138350;27;43953;-78
2021/09/11 08:40:27;;;;;;;3.00;2.70;;;;;;;28.74;54.37;99108.88;5144041;27;41319;-78
2021/09/11 08:42:55;;;;;;;3.40;3.10;;;;;;;29.12;52.94;99098.28;5141582;27;39199;-78
2021/09/11 08:45:23;;;;;;;2.50;2.30;;;;;;;29.32;52.10;99112.75;5133615;27;41846;-79
2021/09/11 08:47:53;;;;;;;2.93;2.63;;;;;;;29.84;51.08;99121.97;5147297;27;43804;-78
2021/09/11 08:50:21;;;;;;;2.90;2.60;;;;;;;31.32;47.47;99134.59;5118351;27;41473;-79
2021/09/11 08:52:51;;;;;;;3.00;2.70;;;;;;;30.82;46.38;99142.69;5136618;27;39231;-80
2021/09/11 08:55:20;;;;;;;2.77;2.57;;;;;;;30.10;47.31;99132.88;5137788;27;41465;-79
2021/09/11 08:57:59;;;;;;;2.90;2.60;;;;;;;29.71;49.05;99124.72;5126922;27;41568;-78
2021/09/11 09:00:46;;;;;;;2.60;2.40;;;;;;;29.36;49.10;99122.22;5117203;27;41208;-78
2021/09/11 09:03:26;;;;;;;2.63;2.43;;;;;;;29.02;48.66;99116.94;5138424;27;40914;-79
2021/09/11 09:05:54;;;;;;;2.73;2.43;;;;;;;28.77;50.29;99114.78;5138242;27;40917;-79
2021/09/11 09:08:28;;;;;;;2.53;2.33;;;;;;;28.34;49.48;99102.47;5140819;27;43120;-78
2021/09/11 09:11:15;;;;;;;2.23;2.03;;;;;;;27.92;51.08;99117.97;5120111;27;41605;-80
2021/09/11 09:13:51;;;;;;;2.40;2.20;;;;;;;27.53;51.83;99110.34;5116911;27;40205;-79
2021/09/11 09:16:20;;;;;;;3.43;3.13;;;;;;;27.17;51.62;99118.63;5121175;27;41976;-80
2021/09/11 09:18:47;;;;;;;2.53;2.33;;;;;;;27.08;52.81;99104.31;5139796;27;42982;-79
2021/09/11 09:21:23;;;;;;;2.47;2.27;;;;;;;27.26;53.23;99098.41;5119125;27;41343;-80
2021/09/11 09:23:53;;;;;;;2.40;2.20;;;;;;;27.52;53.31;99114.09;5117990;27;39921;-79
2021/09/11 09:26:24;;;;;;;2.50;2.30;;;;;;;27.64;51.99;99120.69;5140039;27;40685;-80
2021/09/11 09:29:06;;;;;;;2.27;2.07;;;;;;;27.71;52.00;99126.19;5137632;27;43061;-79
2021/09/11 09:31:35;;;;;;;1.80;1.70;;;;;;;27.79;52.23;99120.59;5124345;27;41552;-79
2021/09/11 09:34:03;;;;;;;1.93;1.73;;;;;;;27.87;51.50;99121.28;5130723;27;39833;-79
2021/09/11 09:36:35;;;;;;;1.83;1.70;;;;;;;27.94;51.22;99112.31;5129106;27;41873;-80
2021/09/11 09:39:05;;;;;;;1.70;1.60;;;;;;;28.01;51.27;99118.63;5140365;27;41872;-79
2021/09/11 09:42:03;;;;;;;2.93;1.90;;;;;;;27.84;51.16;99113.50;5137457;27;42174;-79
2021/09/11 09:44:41;;;;;;;3.37;1.60;;;;;;;27.83;50.82;99116.41;5134059;27;40079;-80
2021/09/11 09:47:13;;;;;;;1.80;1.70;;;;;;;27.79;49.90;99113.28;5130117;27;40808;-81
2021/09/11 09:49:42;;;;;;;2.40;2.20;;;;;;;28.03;49.95;99122.00;5126813;27;41843;-80
2021/09/11 09:52:10;;;;;;;1.80;1.70;;;;;;;28.12;49.39;99118.91;5119116;27;41556;-80
2021/09/11 09:54:38;;;;;;;1.47;1.37;;;;;;;28.56;49.55;99123.09;5132181;27;42780;-80
2021/09/11 09:57:08;;;;;;;1.77;1.67;;;;;;;28.78;47.60;99127.38;5112939;27;41633;-80
2021/09/11 09:59:38;;;;;;;1.33;1.23;;;;;;;28.54;48.30;99125.19;5126922;27;41665;-80
2021/09/11 10:02:06;;;;;;;1.90;1.77;;;;;;;28.35;48.01;99115.88;5132778;27;43104;-80
2021/09/11 10:04:35;;;;;;;1.30;1.20;;;;;;;28.02;48.53;99098.53;5136041;27;40251;-80
2021/09/11 10:07:07;;;;;;;2.47;2.10;;;;;;;27.79;49.79;99099.66;5125794;27;41830;-80
2021/09/11 10:09:35;;;;;;;1.87;1.70;;;;;;;27.49;50.62;99090.00;5114586;27;43054;-80
2021/09/11 10:12:04;;;;;;;1.83;1.73;;;;;;;27.40;51.06;99097.47;5132636;27;42429;-80
2021/09/11 10:14:35;;;;;;;1.50;1.40;;;;;;;27.35;51.69;99090.94;5135306;27;40791;-80
2021/09/11 10:17:04;;;;;;;1.50;1.40;;;;;;;27.26;51.28;99098.41;5144616;27;41933;-80
2021/09/11 10:19:36;;;;;;;1.57;1.40;;;;;;;27.16;51.51;99092.47;5132564;27;42593;-80
2021/09/11 10:22:24;;;;;;;2.20;2.00;;;;;;;27.24;51.14;99089.59;5135463;27;42244;-80
2021/09/11 10:25:01;;;;;;;1.80;1.70;;;;;;;28.37;49.37;99099.34;5117213;27;39801;-80
2021/09/11 10:27:35;;;;;;;1.63;1.53;;;;;;;28.94;48.73;99099.72;5113250;27;41005;-80
2021/09/11 10:30:09;;;;;;;1.40;1.30;;;;;;;29.25;47.60;99090.09;5128092;27;42946;-80
2021/09/11 10:32:44;;;;;;;1.60;1.50;;;;;;;30.29;46.15;99114.75;5118417;27;41552;-81
2021/09/11 10:35:17;;;;;;;1.47;1.37;;;;;;;31.43;41.88;99129.22;5119894;27;40231;-83
2021/09/11 10:37:52;;;;;;;1.10;1.10;;;;;;;33.29;38.98;99147.13;5104882;27;41395;-81
2021/09/11 10:40:27;;;;;;;1.37;1.27;;;;;;;33.86;37.66;99149.13;5144782;27;20957;-85
2021/09/11 10:43:21;;;;;;;1.47;1.37;;;;;;;33.78;37.04;99154.97;5121491;27;41871;-85
2021/09/11 10:46:01;;;;;;;1.57;1.47;;;;;;;35.29;35.42;99153.78;5109890;27;38991;-83
2021/09/11 10:48:50;;;;;;;1.27;1.27;;;;;;;35.49;34.19;99152.44;5132905;27;40685;-81
2021/09/11 10:51:28;;;;;;;1.23;1.17;;;;;;;34.50;35.66;99147.25;5133984;27;42753;-78
2021/09/11 10:53:58;;;;;;;1.30;1.20;;;;;;;33.65;36.25;99138.69;5125835;27;41188;-82
2021/09/11 10:56:27;;;;;;;1.00;1.00;;;;;;;32.91;36.92;99137.31;5134853;27;40275;-82
2021/09/11 10:59:42;;;;;;;1.40;1.30;;;;;;;31.99;38.52;99128.31;5121163;27;40638;-81
2021/09/11 11:02:22;;;;;;;1.57;1.47;;;;;;;31.32;40.58;99090.78;5072619;28;43854;-81
2021/09/11 11:04:55;;;;;;;1.20;1.10;;;;;;;30.95;41.54;99087.88;5138415;27;43215;-80
2021/09/11 11:07:25;;;;;;;1.47;1.37;;;;;;;30.58;42.30;99102.44;5131871;27;40686;-83
2021/09/11 11:09:55;;;;;;;1.60;1.50;;;;;;;29.95;43.30;99091.28;5147148;27;42078;-84
2021/09/11 11:12:25;;;;;;;1.50;1.40;;;;;;;29.54;44.79;99084.25;5135996;27;43515;-85
2021/09/11 11:14:56;;;;;;;2.23;2.00;;;;;;;29.14;45.85;99067.03;5121831;27;41276;-84
2021/09/11 11:17:26;;;;;;;1.80;1.70;;;;;;;28.91;46.79;99058.41;5144417;27;41004;-82
2021/09/11 11:19:55;;;;;;;1.90;1.70;;;;;;;28.76;47.23;99055.00;5132291;27;42020;-79
2021/09/11 11:22:31;;;;;;;2.00;1.70;;;;;;;28.60;47.58;99037.16;5141338;27;43072;-79
2021/09/11 11:24:59;;;;;;;1.97;1.80;;;;;;;28.73;48.15;99053.53;5139819;27;42603;-77
2021/09/11 11:27:29;;;;;;;1.93;1.80;;;;;;;28.70;48.06;99045.75;5117994;27;39894;-86
2021/09/11 11:29:59;;;;;;;2.20;1.93;;;;;;;28.29;48.21;99007.75;5123274;27;41758;-82
2021/09/11 11:32:32;;;;;;;1.33;1.23;;;;;;;28.32;48.58;99055.50;5141593;27;43100;-84
2021/09/11 11:35:01;;;;;;;1.73;1.63;;;;;;;28.19;48.76;99050.84;5123015;27;42525;-84
2021/09/11 11:37:30;;;;;;;1.53;1.27;;;;;;;28.01;48.45;99039.66;5126265;27;40005;-84
2021/09/11 11:40:00;;;;;;;1.67;1.57;;;;;;;28.04;48.89;99048.28;5129886;27;41831;-83
2021/09/11 11:42:32;;;;;;;2.03;1.50;;;;;;;28.02;49.15;99044.91;5119265;27;41752;-83
2021/09/11 11:45:00;;;;;;;1.80;1.60;;;;;;;28.03;48.79;99029.41;5144992;27;42299;-84